createdAt,value
2024-05-09T00:00:54.854Z,8.89
2024-05-09T00:03:45.015Z,8.80
2024-05-09T00:06:16.748Z,8.73
2024-05-09T00:08:48.814Z,8.67
2024-05-09T00:11:23.204Z,8.62
2024-05-09T00:13:54.788Z,8.57
2024-05-09T00:16:26.080Z,8.54
2024-05-09T00:18:57.499Z,8.51
2024-05-09T00:21:27.469Z,8.48
2024-05-09T00:23:58.845Z,8.41
2024-05-09T00:26:30.367Z,8.89
2024-05-09T00:29:00.344Z,11.08
2024-05-09T00:31:31.667Z,12.76
2024-05-09T00:34:03.422Z,12.99
2024-05-09T00:36:34.969Z,12.02
2024-05-09T00:39:06.317Z,11.23
2024-05-09T00:41:37.729Z,10.69
2024-05-09T00:44:09.382Z,10.30
2024-05-09T00:46:39.310Z,9.98
2024-05-09T00:49:12.577Z,9.70
2024-05-09T00:51:44.649Z,9.47
2024-05-09T00:54:16.814Z,9.25
2024-05-09T00:56:49.491Z,9.07
2024-05-09T00:59:22.589Z,8.89
2024-05-09T01:01:54.575Z,8.75
2024-05-09T01:04:26.084Z,8.61
2024-05-09T01:07:32.743Z,8.47
2024-05-09T01:10:09.077Z,8.31
2024-05-09T01:12:43.369Z,8.19
2024-05-09T01:15:14.807Z,8.60
2024-05-09T01:17:47.143Z,10.75
2024-05-09T01:20:22.952Z,12.20
2024-05-09T01:23:00.864Z,11.57
2024-05-09T01:25:32.795Z,10.73
2024-05-09T01:28:04.395Z,10.15
2024-05-09T01:30:37.506Z,9.75
2024-05-09T01:33:11.779Z,9.43
2024-05-09T01:35:44.452Z,9.15
2024-05-09T01:38:17.261Z,8.91
2024-05-09T01:40:49.451Z,8.67
2024-05-09T01:43:20.778Z,8.45
2024-05-09T01:45:52.092Z,8.25
2024-05-09T01:48:23.543Z,8.06
2024-05-09T01:50:55.076Z,7.92
2024-05-09T01:53:26.480Z,8.33
2024-05-09T01:55:57.867Z,10.48
2024-05-09T01:58:29.916Z,11.85
2024-05-09T02:01:01.356Z,11.24
2024-05-09T02:03:32.883Z,10.36
2024-05-09T02:06:04.661Z,9.71
2024-05-09T02:08:34.768Z,9.24
2024-05-09T02:11:09.605Z,8.88
2024-05-09T02:13:41.920Z,8.58
2024-05-09T02:16:14.506Z,8.34
2024-05-09T02:18:45.973Z,8.12
2024-05-09T02:21:17.420Z,7.93
2024-05-09T02:23:47.585Z,7.75
2024-05-09T02:26:19.026Z,7.58
2024-05-09T02:28:50.506Z,7.83
2024-05-09T02:31:21.881Z,9.89
2024-05-09T02:33:54.072Z,11.39
2024-05-09T02:36:25.765Z,10.83
2024-05-09T02:38:57.130Z,9.95
2024-05-09T02:41:28.557Z,9.29
2024-05-09T02:43:59.940Z,8.82
2024-05-09T02:46:31.422Z,8.47
2024-05-09T02:49:01.568Z,8.18
2024-05-09T02:51:32.928Z,7.91
2024-05-09T02:54:04.335Z,7.67
2024-05-09T02:56:35.685Z,7.45
2024-05-09T02:59:07.042Z,7.77
2024-05-09T03:01:38.498Z,9.81
2024-05-09T03:04:09.970Z,11.25
2024-05-09T03:06:44.050Z,10.67
2024-05-09T03:09:15.331Z,9.75
2024-05-09T03:11:47.222Z,9.11
2024-05-09T03:14:20.172Z,8.67
2024-05-09T03:16:51.628Z,8.32
2024-05-09T03:19:23.150Z,8.00
2024-05-09T03:21:54.788Z,7.71
2024-05-09T03:24:26.104Z,7.44
2024-05-09T03:26:57.410Z,7.61
2024-05-09T03:29:28.838Z,9.54
2024-05-09T03:32:01.223Z,11.25
2024-05-09T03:34:32.802Z,11.39
2024-05-09T03:37:04.238Z,10.44
2024-05-09T03:39:35.690Z,9.69
2024-05-09T03:42:08.108Z,9.16
2024-05-09T03:44:39.465Z,8.79
2024-05-09T03:47:10.825Z,8.51
2024-05-09T03:49:42.150Z,8.28
2024-05-09T03:52:13.596Z,8.09
2024-05-09T03:54:48.364Z,7.94
2024-05-09T03:57:19.704Z,8.27
2024-05-09T03:59:51.007Z,10.32
2024-05-09T04:02:22.477Z,11.70
2024-05-09T04:04:54.011Z,11.20
2024-05-09T04:07:25.369Z,10.41
2024-05-09T04:09:56.681Z,9.85
2024-05-09T04:12:28.996Z,9.45
2024-05-09T04:15:00.480Z,9.17
2024-05-09T04:17:32.127Z,8.96
2024-05-09T04:20:05.127Z,8.79
2024-05-09T04:22:38.045Z,8.64
2024-05-09T04:25:09.797Z,8.53
2024-05-09T04:27:39.631Z,8.43
2024-05-09T04:30:18.800Z,8.36
2024-05-09T04:32:57.733Z,8.30
2024-05-09T04:35:29.381Z,8.28
2024-05-09T04:38:01.230Z,8.68
2024-05-09T04:40:35.678Z,10.79
2024-05-09T04:43:14.729Z,12.34
2024-05-09T04:45:46.187Z,11.91
2024-05-09T04:48:17.779Z,11.23
2024-05-09T04:50:49.526Z,10.79
2024-05-09T04:53:21.075Z,10.52
2024-05-09T04:55:52.674Z,10.34
2024-05-09T04:58:22.635Z,10.22
2024-05-09T05:00:54.209Z,10.11
2024-05-09T05:03:24.404Z,10.04
2024-05-09T05:05:56.554Z,9.98
2024-05-09T05:08:28.165Z,9.94
2024-05-09T05:10:59.599Z,9.91
2024-05-09T05:13:36.715Z,9.90
2024-05-09T05:16:10.362Z,9.89
2024-05-09T05:18:41.779Z,9.91
2024-05-09T05:21:13.502Z,9.93
2024-05-09T05:23:45.253Z,9.97
2024-05-09T05:26:20.425Z,10.02
2024-05-09T05:28:52.853Z,10.08
2024-05-09T05:31:24.192Z,10.14
2024-05-09T05:33:55.622Z,10.22
2024-05-09T05:36:27.005Z,10.29
2024-05-09T05:38:58.363Z,10.38
2024-05-09T05:41:29.805Z,10.45
2024-05-09T05:43:59.971Z,10.54
2024-05-09T05:46:31.335Z,10.64
2024-05-09T05:49:02.838Z,10.73
2024-05-09T05:51:32.690Z,10.82
2024-05-09T05:54:04.092Z,10.91
2024-05-09T05:56:35.504Z,11.02
2024-05-09T05:59:05.510Z,11.11
2024-05-09T06:01:36.891Z,11.21
2024-05-09T06:04:08.399Z,11.33
2024-05-09T06:06:39.839Z,11.43
2024-05-09T06:09:11.190Z,11.54
2024-05-09T06:11:43.493Z,11.66
2024-05-09T06:14:16.104Z,11.77
2024-05-09T06:16:47.692Z,11.88
2024-05-09T06:19:19.569Z,11.99
2024-05-09T06:21:51.125Z,12.10
2024-05-09T06:24:22.620Z,12.21
2024-05-09T06:26:52.422Z,12.31
2024-05-09T06:29:23.964Z,12.41
2024-05-09T06:31:57.760Z,12.51
2024-05-09T06:34:31.236Z,12.62
2024-05-09T06:37:02.802Z,12.73
2024-05-09T06:39:32.760Z,12.84
2024-05-09T06:42:04.259Z,12.96
2024-05-09T06:44:35.675Z,13.08
2024-05-09T06:47:05.741Z,13.19
2024-05-09T06:49:37.907Z,13.31
2024-05-09T06:52:11.701Z,13.42
2024-05-09T06:54:43.230Z,13.54
2024-05-09T06:57:14.605Z,13.66
2024-05-09T06:59:44.499Z,13.77
2024-05-09T07:02:15.954Z,13.87
2024-05-09T07:04:47.434Z,13.98
2024-05-09T07:07:18.811Z,14.07
2024-05-09T07:09:48.647Z,14.17
2024-05-09T07:12:20.064Z,14.29
2024-05-09T07:14:52.343Z,14.41
2024-05-09T07:17:23.920Z,14.52
2024-05-09T07:19:55.571Z,14.61
2024-05-09T07:22:27.965Z,14.70
2024-05-09T07:24:59.296Z,14.79
2024-05-09T07:27:29.147Z,14.88
2024-05-09T07:29:59.239Z,14.97
2024-05-09T07:32:30.680Z,15.07
2024-05-09T07:35:02.401Z,15.15
2024-05-09T07:37:33.798Z,15.23
2024-05-09T07:40:07.381Z,15.31
2024-05-09T07:42:38.992Z,15.35
2024-05-09T07:45:29.658Z,15.39
2024-05-09T07:52:32.654Z,15.48
2024-05-09T07:53:39.930Z,15.56
2024-05-09T07:56:18.113Z,15.62
2024-05-09T07:58:53.331Z,15.69
2024-05-09T08:01:27.003Z,15.73
2024-05-09T08:03:58.938Z,15.79
2024-05-09T08:06:30.571Z,15.85
2024-05-09T08:09:05.472Z,15.90
2024-05-09T08:11:40.232Z,15.95
2024-05-09T08:14:11.564Z,16.04
2024-05-09T08:16:43.321Z,16.15
2024-05-09T08:19:14.635Z,16.24
2024-05-09T08:21:46.120Z,16.31
2024-05-09T08:24:17.519Z,16.40
2024-05-09T08:26:48.953Z,16.47
2024-05-09T08:29:20.414Z,16.50
2024-05-09T08:31:55.744Z,16.52
2024-05-09T08:34:27.380Z,16.55
2024-05-09T08:37:03.743Z,16.63
2024-05-09T08:39:41.503Z,16.72
2024-05-09T08:42:18.192Z,16.80
2024-05-09T08:44:51.196Z,16.89
2024-05-09T08:47:22.798Z,16.97
2024-05-09T08:49:58.746Z,17.08
2024-05-09T08:52:30.271Z,17.20
2024-05-09T08:55:01.716Z,17.30
2024-05-09T08:57:34.115Z,17.40
2024-05-09T09:00:14.859Z,17.44
2024-05-09T09:02:53.040Z,17.46
2024-05-09T09:05:32.411Z,17.50
2024-05-09T09:08:09.035Z,17.55
2024-05-09T09:10:43.319Z,17.65
2024-05-09T09:13:14.843Z,17.77
2024-05-09T09:15:58.692Z,17.88
2024-05-09T09:18:33.518Z,17.99
2024-05-09T09:21:05.361Z,18.04
2024-05-09T09:23:36.738Z,18.04
2024-05-09T09:26:08.320Z,18.07
2024-05-09T09:28:41.484Z,18.11
2024-05-09T09:31:12.969Z,18.19
2024-05-09T09:33:45.735Z,18.24
2024-05-09T09:36:18.594Z,18.28
2024-05-09T09:38:52.013Z,18.34
2024-05-09T09:41:30.730Z,18.39
2024-05-09T09:44:04.449Z,18.43
2024-05-09T09:46:36.879Z,18.47
2024-05-09T09:49:10.775Z,18.47
2024-05-09T09:51:44.574Z,18.45
2024-05-09T09:54:16.313Z,18.42
2024-05-09T09:56:48.635Z,18.39
2024-05-09T09:59:20.122Z,18.39
2024-05-09T10:01:51.612Z,18.38
2024-05-09T10:04:24.911Z,18.40
2024-05-09T10:07:00.588Z,18.46
2024-05-09T10:09:34.438Z,18.57
2024-05-09T10:12:14.437Z,18.68
2024-05-09T10:14:51.134Z,18.72
2024-05-09T10:17:23.041Z,18.78
2024-05-09T10:20:14.832Z,18.83
2024-05-09T10:22:53.090Z,19.00
2024-05-09T10:25:25.038Z,19.19
2024-05-09T10:27:58.414Z,19.34
2024-05-09T10:30:36.089Z,19.56
2024-05-09T10:33:13.154Z,19.80
2024-05-09T10:35:53.840Z,20.06
2024-05-09T10:38:26.370Z,20.27
2024-05-09T10:41:00.817Z,20.46
2024-05-09T10:43:34.388Z,20.69
2024-05-09T10:46:07.688Z,20.88
2024-05-09T10:48:40.670Z,21.04
2024-05-09T10:51:12.347Z,21.22
2024-05-09T10:53:45.473Z,21.40
2024-05-09T10:56:17.699Z,21.57
2024-05-09T10:58:51.877Z,21.71
2024-05-09T11:01:23.468Z,21.73
2024-05-09T11:03:57.485Z,21.71
2024-05-09T11:06:30.157Z,21.79
2024-05-09T11:09:01.590Z,21.88
2024-05-09T11:11:33.609Z,21.97
2024-05-09T11:14:14.185Z,22.02
2024-05-09T11:16:45.569Z,22.06
2024-05-09T11:19:19.566Z,22.09
2024-05-09T11:21:54.933Z,22.18
2024-05-09T11:24:26.358Z,22.21
2024-05-09T11:26:58.409Z,22.13
2024-05-09T11:29:40.297Z,22.10
2024-05-09T11:32:14.816Z,22.12
2024-05-09T11:34:46.191Z,22.15
2024-05-09T11:37:17.740Z,22.14
2024-05-09T11:39:49.563Z,22.12
2024-05-09T11:42:22.378Z,22.25
2024-05-09T11:44:53.657Z,22.58
2024-05-09T11:47:25.225Z,23.01
2024-05-09T11:49:57.223Z,23.29
2024-05-09T11:52:28.744Z,23.59
2024-05-09T11:55:01.231Z,23.85
2024-05-09T11:57:32.868Z,23.89
2024-05-09T12:00:05.688Z,23.79
2024-05-09T12:02:38.845Z,23.66
2024-05-09T12:05:10.404Z,23.52
2024-05-09T12:07:43.347Z,23.29
2024-05-09T12:10:19.619Z,23.06
2024-05-09T12:12:56.426Z,22.90
2024-05-09T12:15:27.924Z,22.97
2024-05-09T12:18:02.719Z,23.21
2024-05-09T12:20:39.190Z,23.45
2024-05-09T12:23:12.087Z,23.49
2024-05-09T12:25:43.496Z,23.42
2024-05-09T12:28:15.647Z,23.28
2024-05-09T12:30:49.063Z,23.17
2024-05-09T12:33:21.938Z,23.21
2024-05-09T12:35:53.500Z,23.34
2024-05-09T12:38:24.869Z,23.80
2024-05-09T12:40:56.488Z,24.39
2024-05-09T12:43:28.015Z,24.87
2024-05-09T12:46:00.489Z,25.15
2024-05-09T12:48:32.119Z,25.17
2024-05-09T12:51:03.509Z,25.04
2024-05-09T12:53:34.785Z,24.90
2024-05-09T12:58:47.104Z,24.99
2024-05-09T13:01:18.567Z,24.97
2024-05-09T13:03:50.490Z,25.02
2024-05-09T13:06:22.117Z,25.03
2024-05-09T13:08:53.460Z,24.85
2024-05-09T13:11:24.803Z,24.56
2024-05-09T13:13:57.024Z,24.35
2024-05-09T13:16:28.446Z,24.13
2024-05-09T13:18:59.953Z,23.88
2024-05-09T13:21:31.383Z,23.70
2024-05-09T13:24:03.181Z,23.83
2024-05-09T13:26:34.704Z,24.21
2024-05-09T13:29:06.102Z,24.58
2024-05-09T13:31:37.517Z,24.79
2024-05-09T13:34:09.051Z,24.85
2024-05-09T13:36:41.419Z,24.80
2024-05-09T13:39:13.002Z,24.74
2024-05-09T13:41:44.401Z,24.66
2024-05-09T13:44:15.806Z,24.56
2024-05-09T13:46:47.228Z,24.38
2024-05-09T13:49:18.677Z,24.33
2024-05-09T13:51:50.155Z,24.37
2024-05-09T13:54:22.719Z,24.49
2024-05-09T13:56:54.650Z,24.58
2024-05-09T13:59:25.978Z,24.64
2024-05-09T14:01:57.391Z,24.60
2024-05-09T14:04:29.136Z,24.45
2024-05-09T14:07:00.704Z,24.32
2024-05-09T14:09:32.187Z,24.24
2024-05-09T14:12:03.521Z,24.16
2024-05-09T14:14:35.665Z,24.12
2024-05-09T14:17:07.469Z,24.06
2024-05-09T14:19:38.894Z,24.00
2024-05-09T14:22:10.257Z,23.94
2024-05-09T14:24:42.147Z,23.88
2024-05-09T14:27:13.592Z,23.79
2024-05-09T14:29:44.928Z,23.71
2024-05-09T14:32:16.600Z,23.60
2024-05-09T14:34:48.028Z,23.45
2024-05-09T14:37:19.592Z,23.28
2024-05-09T14:39:51.020Z,23.11
2024-05-09T14:42:22.692Z,22.98
2024-05-09T14:44:54.265Z,22.86
2024-05-09T14:47:26.299Z,22.61
2024-05-09T14:49:57.827Z,22.31
2024-05-09T14:52:29.163Z,22.13
2024-05-09T14:55:01.171Z,22.03
2024-05-09T14:57:32.916Z,21.91
2024-05-09T15:00:08.980Z,21.80
2024-05-09T15:02:43.023Z,21.76
2024-05-09T15:05:14.695Z,21.73
2024-05-09T15:07:46.967Z,21.68
2024-05-09T15:10:26.569Z,21.66
2024-05-09T15:13:05.842Z,21.68
2024-05-09T15:15:39.154Z,21.69
2024-05-09T15:18:11.158Z,21.69
2024-05-09T15:20:44.895Z,21.62
2024-05-09T15:23:16.440Z,21.59
2024-05-09T15:25:48.350Z,21.57
2024-05-09T15:28:19.877Z,21.55
2024-05-09T15:30:51.412Z,21.53
2024-05-09T15:33:22.834Z,21.51
2024-05-09T15:35:54.577Z,21.45
2024-05-09T15:38:27.471Z,21.38
2024-05-09T15:40:59.437Z,21.31
2024-05-09T15:43:31.227Z,21.22
2024-05-09T15:46:02.930Z,21.13
2024-05-09T15:48:34.390Z,21.09
2024-05-09T15:51:08.154Z,21.04
2024-05-09T15:53:39.513Z,20.98
2024-05-09T15:56:11.884Z,20.94
2024-05-09T15:58:43.666Z,20.93
2024-05-09T16:01:15.405Z,20.92
2024-05-09T16:03:47.004Z,20.92
2024-05-09T16:06:18.779Z,20.91
2024-05-09T16:08:50.158Z,20.90
2024-05-09T16:11:21.573Z,20.88
2024-05-09T16:13:52.940Z,20.85
2024-05-09T16:16:25.193Z,20.80
2024-05-09T16:18:56.786Z,20.74
2024-05-09T16:21:28.356Z,20.66
2024-05-09T16:24:01.383Z,20.58
2024-05-09T16:26:33.088Z,20.51
2024-05-09T16:29:04.573Z,20.45
2024-05-09T16:31:35.991Z,20.39
2024-05-09T16:34:07.462Z,20.36
2024-05-09T16:36:38.868Z,20.31
2024-05-09T16:39:10.199Z,20.26
2024-05-09T16:41:41.827Z,20.24
2024-05-09T16:44:13.244Z,20.23
2024-05-09T16:46:45.216Z,20.20
2024-05-09T16:49:17.043Z,20.18
2024-05-09T16:51:48.466Z,20.15
2024-05-09T16:54:19.772Z,20.12
2024-05-09T16:56:51.496Z,20.08
2024-05-09T16:59:22.935Z,20.03
2024-05-09T17:01:54.435Z,19.99
2024-05-09T17:04:26.234Z,19.93
2024-05-09T17:06:58.523Z,19.86
2024-05-09T17:09:30.000Z,19.79
2024-05-09T17:12:01.472Z,19.71
2024-05-09T17:14:33.233Z,19.66
2024-05-09T17:17:07.036Z,19.62
2024-05-09T17:19:40.579Z,19.56
2024-05-09T17:22:12.454Z,19.49
2024-05-09T17:24:44.111Z,19.43
2024-05-09T17:27:15.831Z,19.35
2024-05-09T17:29:47.502Z,19.27
2024-05-09T17:32:18.947Z,19.18
2024-05-09T17:34:50.294Z,19.07
2024-05-09T17:37:21.894Z,18.96
2024-05-09T17:39:55.248Z,18.86
2024-05-09T17:42:26.632Z,18.73
2024-05-09T17:44:57.953Z,18.56
2024-05-09T17:47:29.394Z,18.41
2024-05-09T17:50:00.912Z,18.25
2024-05-09T17:52:32.646Z,18.10
2024-05-09T17:55:04.131Z,17.95
2024-05-09T17:57:35.749Z,17.78
2024-05-09T18:00:11.823Z,17.61
2024-05-09T18:02:43.600Z,17.42
2024-05-09T18:05:15.347Z,17.25
2024-05-09T18:07:46.899Z,17.10
2024-05-09T18:10:25.437Z,16.92
2024-05-09T18:13:01.469Z,16.73
2024-05-09T18:15:33.294Z,16.57
2024-05-09T18:18:06.588Z,16.40
2024-05-09T18:20:43.640Z,16.24
2024-05-09T18:23:19.480Z,16.08
2024-05-09T18:25:54.496Z,15.92
2024-05-09T18:28:26.367Z,15.75
2024-05-09T18:30:57.815Z,15.59
2024-05-09T18:33:29.391Z,15.45
2024-05-09T18:36:02.020Z,15.31
2024-05-09T18:38:33.601Z,15.16
2024-05-09T18:41:05.157Z,15.00
2024-05-09T18:43:42.293Z,14.86
2024-05-09T18:46:17.092Z,14.71
2024-05-09T18:48:48.670Z,14.59
2024-05-09T18:51:21.100Z,14.46
2024-05-09T18:53:54.729Z,14.34
2024-05-09T18:56:26.830Z,14.22
2024-05-09T18:58:58.140Z,14.11
2024-05-09T19:01:29.689Z,14.01
2024-05-09T19:04:01.583Z,13.91
2024-05-09T19:06:33.337Z,13.80
2024-05-09T19:09:05.679Z,13.71
2024-05-09T19:11:39.864Z,13.62
2024-05-09T19:14:11.275Z,13.51
2024-05-09T19:16:44.214Z,13.39
2024-05-09T19:19:16.155Z,13.30
2024-05-09T19:21:47.850Z,13.20
2024-05-09T19:24:19.296Z,13.11
2024-05-09T19:26:50.753Z,13.01
2024-05-09T19:29:22.617Z,12.94
2024-05-09T19:31:54.041Z,12.84
2024-05-09T19:34:25.538Z,12.75
2024-05-09T19:36:57.117Z,12.66
2024-05-09T19:39:28.451Z,12.58
2024-05-09T19:41:58.274Z,12.51
2024-05-09T19:44:29.748Z,12.44
2024-05-09T19:47:01.162Z,12.35
2024-05-09T19:49:31.284Z,12.27
2024-05-09T19:52:03.001Z,12.18
2024-05-09T19:54:34.687Z,12.10
2024-05-09T19:57:06.670Z,12.02
2024-05-09T19:59:38.038Z,11.94
2024-05-09T20:02:09.697Z,11.86
2024-05-09T20:04:45.135Z,11.78
2024-05-09T20:07:17.102Z,11.70
2024-05-09T20:09:49.224Z,11.63
2024-05-09T20:12:21.059Z,11.56
2024-05-09T20:14:52.736Z,11.48
2024-05-09T20:17:22.661Z,11.40
2024-05-09T20:19:54.657Z,11.35
2024-05-09T20:22:26.167Z,11.29
2024-05-09T20:24:57.999Z,11.22
2024-05-09T20:27:30.333Z,11.17
2024-05-09T20:30:02.383Z,11.12
2024-05-09T20:32:34.343Z,11.06
2024-05-09T20:35:06.550Z,11.02
2024-05-09T20:37:37.861Z,10.97
2024-05-09T20:40:18.299Z,10.93
2024-05-09T20:42:56.496Z,10.88
2024-05-09T20:45:27.841Z,10.84
2024-05-09T20:47:59.310Z,10.81
2024-05-09T20:50:37.820Z,10.77
2024-05-09T20:53:14.553Z,10.73
2024-05-09T20:55:47.112Z,10.68
2024-05-09T20:58:17.066Z,10.64
2024-05-09T21:00:48.695Z,10.59
2024-05-09T21:03:20.679Z,10.55
2024-05-09T21:05:50.696Z,10.50
2024-05-09T21:08:23.257Z,10.44
2024-05-09T21:10:55.393Z,10.37
2024-05-09T21:13:27.181Z,10.31
2024-05-09T21:15:58.859Z,10.26
2024-05-09T21:18:30.280Z,10.21
2024-05-09T21:21:02.151Z,10.16
2024-05-09T21:23:34.454Z,10.11
2024-05-09T21:26:08.220Z,10.06
2024-05-09T21:28:39.683Z,10.01
2024-05-09T21:31:12.163Z,9.96
2024-05-09T21:33:43.772Z,9.91
2024-05-09T21:36:15.410Z,9.88
2024-05-09T21:38:46.712Z,9.83
2024-05-09T21:41:18.076Z,9.79
2024-05-09T21:43:50.613Z,9.76
2024-05-09T21:46:27.714Z,9.73
2024-05-09T21:48:59.200Z,9.68
2024-05-09T21:51:32.140Z,9.62
2024-05-09T21:54:03.603Z,9.56
2024-05-09T21:56:34.912Z,9.49
2024-05-09T21:59:06.645Z,9.42
2024-05-09T22:01:38.042Z,9.36
2024-05-09T22:04:09.513Z,9.29
2024-05-09T22:06:41.147Z,9.22
2024-05-09T22:09:12.613Z,9.16
2024-05-09T22:11:44.041Z,9.11
2024-05-09T22:14:15.354Z,9.07
2024-05-09T22:16:46.765Z,9.03
2024-05-09T22:19:18.750Z,8.99
2024-05-09T22:21:50.675Z,8.95
2024-05-09T22:24:22.113Z,8.94
2024-05-09T22:26:55.233Z,8.93
2024-05-09T22:29:26.592Z,8.91
2024-05-09T22:31:58.457Z,8.89
2024-05-09T22:34:29.946Z,8.87
2024-05-09T22:36:59.849Z,8.84
2024-05-09T22:39:31.566Z,8.82
2024-05-09T22:42:02.928Z,8.79
2024-05-09T22:44:32.937Z,8.75
2024-05-09T22:47:04.455Z,8.71
2024-05-09T22:49:34.458Z,8.65
2024-05-09T22:52:06.388Z,8.63
2024-05-09T22:54:37.733Z,8.59
2024-05-09T22:57:09.105Z,8.56
2024-05-09T22:59:40.591Z,8.52
2024-05-09T23:02:10.571Z,8.47
2024-05-09T23:04:42.043Z,8.44
2024-05-09T23:07:12.198Z,8.40
2024-05-09T23:09:46.990Z,8.37
2024-05-09T23:12:18.435Z,8.34
2024-05-09T23:14:49.989Z,8.30
2024-05-09T23:17:21.628Z,8.28
2024-05-09T23:19:53.036Z,8.28
2024-05-09T23:22:25.137Z,8.70
2024-05-09T23:24:56.560Z,10.75
2024-05-09T23:27:28.379Z,12.48
2024-05-09T23:29:59.778Z,12.87
2024-05-09T23:32:31.495Z,12.01
2024-05-09T23:35:02.934Z,11.26
2024-05-09T23:37:33.070Z,10.76
2024-05-09T23:40:07.011Z,10.40
2024-05-09T23:42:42.874Z,10.13
2024-05-09T23:45:14.761Z,9.88
2024-05-09T23:47:46.423Z,9.67
2024-05-09T23:50:24.002Z,9.47
2024-05-09T23:53:02.805Z,9.30
2024-05-09T23:55:32.862Z,9.15
2024-05-09T23:58:04.977Z,9.01
